Time;durP1;ratioP1;P1;durP2;ratioP2;P2;SDS_P1;SDS_P2;PMS_P1;PMS_P2;Temp;Humidity;BMP_temperature;BMP_pressure;BME280_temperature;BME280_humidity;BME280_pressure;Samples;Min_cycle;Max_cycle;Signal;HPM_P1;HPM_P2
2022/10/03 00:00:10;;;;;;;8.93;2.70;;;9.50;99.90;;;-141.84;90.74;17989.22;5054287;28;20232;-63
2022/10/03 00:03:29;;;;;;;9.47;3.20;;;9.50;99.90;;;-141.84;90.99;17970.94;5054218;28;20225;-64
2022/10/03 00:06:14;;;;;;;5.17;2.60;;;9.50;99.90;;;-141.84;91.30;17956.72;5051788;28;20225;-64
2022/10/03 00:09:05;;;;;;;7.00;2.70;;;9.50;99.90;;;-141.84;91.54;17950.63;5034403;28;20236;-64
2022/10/03 00:11:53;;;;;;;7.00;2.40;;;9.50;99.90;;;-141.84;91.69;17985.16;5034203;28;20240;-63
2022/10/03 00:14:35;;;;;;;5.93;2.50;;;9.50;99.90;;;-141.84;91.43;17948.59;5034134;28;20229;-63
2022/10/03 00:17:16;;;;;;;6.87;2.50;;;9.50;99.90;;;-141.84;91.67;17968.91;5034089;28;20237;-64
2022/10/03 00:20:03;;;;;;;6.83;2.50;;;9.40;99.90;;;-141.84;91.74;17946.56;5034138;28;20225;-64
2022/10/03 00:22:44;;;;;;;6.20;2.30;;;9.40;99.90;;;-141.84;92.10;17946.56;5040535;28;20225;-64
2022/10/03 00:25:33;;;;;;;9.20;3.20;;;9.40;99.90;;;-141.84;91.97;17966.88;5048546;28;20234;-65
2022/10/03 00:28:27;;;;;;;10.70;2.63;;;9.40;99.90;;;-141.84;91.94;17948.59;5034120;28;20226;-64
2022/10/03 00:31:11;;;;;;;4.97;2.80;;;9.50;99.90;;;-141.84;91.83;18035.94;5034106;28;20260;-64
2022/10/03 00:34:03;;;;;;;7.77;2.60;;;9.70;99.90;;;-141.84;92.02;17956.72;5050929;28;20235;-63
2022/10/03 00:36:48;;;;;;;9.13;3.60;;;9.50;99.90;;;-141.84;92.05;17942.50;5054067;28;20209;-64
2022/10/03 00:39:51;;;;;;;7.47;3.10;;;9.50;99.90;;;-141.84;92.46;17930.31;5053893;28;20217;-63
2022/10/03 00:43:03;;;;;;;8.60;2.87;;;9.40;99.90;;;-141.84;92.33;17975.00;5052610;28;20216;-64
2022/10/03 00:45:57;;;;;;;5.97;2.80;;;9.50;99.90;;;-141.84;92.02;17954.69;5051971;28;20224;-63
2022/10/03 00:49:23;;;;;;;8.27;2.80;;;9.50;99.90;;;-141.84;92.10;17934.38;5053693;28;20228;-64
2022/10/03 00:52:12;;;;;;;6.73;2.87;;;9.50;99.90;;;-141.84;92.52;17952.66;5033583;28;20234;-63
2022/10/03 00:55:00;;;;;;;10.17;3.40;;;9.50;99.90;;;-141.84;92.78;17968.91;5034351;28;20274;-64
2022/10/03 00:58:00;;;;;;;7.43;3.07;;;9.40;99.90;;;-141.84;92.60;17950.63;5033462;28;20206;-63
2022/10/03 01:00:31;;;;;;;8.97;3.30;;;9.70;99.90;;;-141.84;92.75;17948.59;5033699;28;20210;-63
2022/10/03 01:03:29;;;;;;;8.53;2.90;;;9.40;99.90;;;-141.84;92.32;17944.53;5033192;28;20222;-64
2022/10/03 01:06:34;;;;;;;6.07;2.70;;;9.50;99.90;;;-141.84;92.38;17928.28;5033126;28;20225;-64
2022/10/03 01:09:37;;;;;;;7.67;3.07;;;9.40;99.90;;;-141.84;92.35;17938.44;5033169;28;20230;-64
2022/10/03 01:12:31;;;;;;;6.87;2.70;;;9.50;99.90;;;-141.84;92.41;17893.72;5033165;28;20234;-63
2022/10/03 01:15:22;;;;;;;6.13;2.80;;;9.50;99.90;;;-141.84;92.49;17912.00;5032696;28;20717;-64
2022/10/03 01:18:13;;;;;;;9.70;3.30;;;9.40;99.90;;;-141.84;92.71;17942.50;5032323;28;20362;-65
2022/10/03 01:20:58;;;;;;;9.57;2.97;;;9.40;99.90;;;-141.84;93.10;17934.38;5048760;28;20240;-63
2022/10/03 01:24:01;;;;;;;11.00;3.20;;;9.30;99.90;;;-141.84;93.20;17924.22;5013053;28;20231;-64
2022/10/03 01:27:00;;;;;;;8.93;2.90;;;9.50;99.90;;;-141.84;93.29;17944.53;5012184;28;20593;-64
2022/10/03 01:32:43;;;;;;;7.57;3.00;;;9.50;99.90;;;-141.84;92.91;17907.94;5017458;28;20268;-63
2022/10/03 01:35:30;;;;;;;6.53;3.10;;;9.50;99.90;;;-141.84;93.11;17922.16;5032826;28;20237;-64
2022/10/03 01:38:14;;;;;;;10.17;2.90;;;9.50;99.90;;;-141.84;92.92;17918.09;5032424;28;20597;-63
2022/10/03 01:40:55;;;;;;;8.33;2.90;;;9.40;99.90;;;-141.84;92.94;17924.22;5032648;28;20226;-63
2022/10/03 01:43:37;;;;;;;9.17;3.60;;;9.40;99.90;;;-141.84;92.76;17918.09;5032199;28;20234;-64
2022/10/03 01:46:19;;;;;;;9.97;3.00;;;9.40;99.90;;;-141.84;92.74;17903.88;5032602;28;20226;-63
2022/10/03 01:48:59;;;;;;;8.33;3.13;;;9.40;99.90;;;-141.84;92.71;17918.09;5032428;28;20260;-64
2022/10/03 01:51:34;;;;;;;7.80;2.93;;;9.30;99.90;;;-141.84;92.81;17912.00;5032776;28;20222;-63
2022/10/03 01:54:20;;;;;;;8.87;2.97;;;9.40;99.90;;;-141.84;92.99;17920.13;5051146;28;20229;-63
2022/10/03 01:57:01;;;;;;;8.67;2.97;;;9.40;99.90;;;-141.84;92.54;17940.47;5052231;28;20233;-63
2022/10/03 01:59:42;;;;;;;9.40;3.00;;;9.40;99.90;;;-141.84;92.42;17950.63;5052095;28;20274;-63
2022/10/03 02:02:25;;;;;;;10.27;3.40;;;9.50;99.90;;;-141.84;92.29;17944.53;5051876;28;20720;-63
2022/10/03 02:05:06;;;;;;;10.57;2.77;;;9.60;99.90;;;-141.84;91.46;17932.34;5051984;28;20229;-62
2022/10/03 02:07:49;;;;;;;8.87;3.07;;;9.70;99.90;;;-141.84;90.56;17948.59;5051430;28;20229;-63
2022/10/03 02:10:32;;;;;;;7.47;2.83;;;9.70;99.90;;;-141.84;90.46;17912.00;5051674;28;20225;-62
2022/10/03 02:13:12;;;;;;;5.80;2.70;;;9.80;99.90;;;-141.84;90.30;17940.47;5052025;28;20197;-63
2022/10/03 02:15:57;;;;;;;5.87;2.60;;;9.80;99.90;;;-141.84;90.32;17956.72;5052162;28;20186;-64
2022/10/03 02:18:44;;;;;;;4.00;2.47;;;9.90;99.90;;;-141.84;89.64;17956.72;5051449;28;20217;-63
2022/10/03 02:21:19;;;;;;;6.60;2.90;;;9.90;99.90;;;-141.84;89.60;17950.63;5052079;28;20205;-64
2022/10/03 02:23:52;;;;;;;8.43;3.43;;;9.90;99.90;;;-141.84;89.45;17975.00;5051373;28;20263;-64
2022/10/03 02:27:06;;;;;;;6.90;2.80;;;10.00;99.90;;;-141.84;89.25;17960.78;5051639;28;20236;-63
2022/10/03 02:30:09;;;;;;;10.13;3.00;;;10.00;99.90;;;-141.84;89.06;17950.63;5051477;28;20233;-64
2022/10/03 02:33:24;;;;;;;7.60;2.50;;;10.10;99.90;;;-141.84;88.69;17968.91;5051462;28;20221;-64
2022/10/03 02:36:50;;;;;;;11.03;2.57;;;10.20;99.90;;;-141.84;87.63;17975.00;5051337;28;20233;-64
2022/10/03 02:40:22;;;;;;;5.97;2.50;;;10.20;99.90;;;-141.84;86.39;17968.91;5041763;28;20703;-65
2022/10/03 02:43:25;;;;;;;6.63;2.40;;;10.20;99.90;;;-141.84;85.70;17995.31;5031088;28;20706;-64
2022/10/03 02:46:36;;;;;;;8.47;2.40;;;10.30;99.90;;;-141.84;85.31;18025.78;5049553;28;20201;-63
2022/10/03 02:50:09;;;;;;;6.40;2.67;;;10.30;99.90;;;-141.84;85.31;18009.53;5044643;28;20693;-65
2022/10/03 02:53:32;;;;;;;8.57;2.70;;;10.30;99.90;;;-141.84;85.62;17987.19;5031515;28;20233;-63
2022/10/03 02:56:47;;;;;;;7.47;2.50;;;10.30;99.90;;;-141.84;86.26;18009.53;5031153;28;20233;-64
2022/10/03 03:00:02;;;;;;;7.20;2.77;;;10.20;99.90;;;-141.84;84.78;17993.28;5018571;28;20249;-63
2022/10/03 03:03:29;;;;;;;6.00;2.27;;;10.20;99.90;;;-141.84;85.83;17983.13;5031170;28;20237;-64
2022/10/03 03:06:29;;;;;;;9.30;2.90;;;10.20;99.90;;;-141.84;85.50;17987.19;5030817;28;20225;-63
2022/10/03 03:09:53;;;;;;;15.90;3.20;;;10.20;99.90;;;-141.84;85.62;17968.91;5031259;28;20226;-65
2022/10/03 03:13:21;;;;;;;5.90;2.60;;;10.20;99.90;;;-141.84;86.24;17985.16;5031407;28;20229;-64
2022/10/03 03:16:35;;;;;;;8.10;3.07;;;10.30;99.90;;;-141.84;86.18;18033.91;5029289;28;20264;-64
2022/10/03 03:19:41;;;;;;;9.33;2.60;;;10.30;99.90;;;-141.84;85.25;18001.41;5031023;28;20264;-64
2022/10/03 03:22:34;;;;;;;8.17;2.60;;;10.40;99.90;;;-141.84;84.81;18046.09;5030226;28;20686;-64
2022/10/03 03:25:38;;;;;;;7.33;2.57;;;10.50;99.90;;;-141.84;84.86;18037.97;5030882;28;20193;-63
2022/10/03 03:28:32;;;;;;;7.73;3.13;;;10.50;99.90;;;-141.84;83.88;18086.72;5034191;28;20228;-64
2022/10/03 03:31:11;;;;;;;4.20;2.33;;;10.60;99.90;;;-141.84;84.46;17997.34;5050750;28;20220;-63
2022/10/03 03:33:55;;;;;;;7.87;2.60;;;10.60;99.90;;;-141.84;84.50;18078.59;5036845;28;20829;-62
2022/10/03 03:36:37;;;;;;;7.40;2.30;;;10.60;99.90;;;-141.84;84.39;18074.53;5031076;28;20210;-64
2022/10/03 03:39:34;;;;;;;6.77;2.57;;;10.60;99.90;;;-141.84;83.02;18058.28;5031130;28;20279;-62
2022/10/03 03:42:37;;;;;;;9.03;2.60;;;10.70;99.90;;;-141.84;82.61;18115.16;5030637;28;20226;-63
2022/10/03 03:45:40;;;;;;;6.37;2.50;;;10.70;99.90;;;-141.84;83.08;18111.09;5030477;28;20229;-63
2022/10/03 03:49:00;;;;;;;6.63;2.37;;;10.70;99.90;;;-141.84;83.54;18086.72;5030566;28;20764;-64
2022/10/03 03:51:42;;;;;;;5.67;1.90;;;10.70;99.90;;;-141.84;84.15;18056.25;5019301;28;20230;-63
2022/10/03 03:54:48;;;;;;;6.87;2.17;;;10.70;99.90;;;-141.84;84.98;18029.84;5011226;28;20214;-64
2022/10/03 03:57:51;;;;;;;6.80;2.60;;;10.60;99.90;;;-141.84;85.72;18058.28;5010986;28;20210;-66
2022/10/03 04:00:36;;;;;;;6.47;2.40;;;10.50;99.90;;;-141.84;86.15;18048.13;5010846;28;20210;-67
2022/10/03 04:03:26;;;;;;;7.63;2.33;;;10.40;99.90;;;-141.84;86.92;18003.44;5029758;28;20765;-68
2022/10/03 04:06:26;;;;;;;11.17;2.80;;;10.30;99.90;;;-141.84;87.42;18037.97;5032258;28;20234;-67
2022/10/03 04:09:18;;;;;;;5.63;2.40;;;10.20;99.90;;;-141.84;88.36;18013.59;5050243;28;20240;-66
2022/10/03 04:12:05;;;;;;;6.80;2.73;;;10.20;99.90;;;-141.84;88.85;18023.75;5049710;28;20233;-68
2022/10/03 04:15:28;;;;;;;7.03;2.40;;;10.20;99.90;;;-141.84;88.97;18005.47;5050060;28;20277;-67
2022/10/03 04:21:48;;;;;;;7.93;2.60;;;10.30;99.90;;;-141.84;88.15;18015.63;5050542;28;20222;-67
2022/10/03 04:24:55;;;;;;;8.20;2.90;;;10.30;99.90;;;-141.84;87.40;18005.47;5050599;28;20608;-67
2022/10/03 04:28:09;;;;;;;8.20;2.63;;;10.40;99.90;;;-141.84;87.46;18023.75;5050297;28;20205;-66
2022/10/03 04:30:54;;;;;;;7.07;2.60;;;10.40;99.90;;;-141.84;87.61;18025.78;5050232;28;20677;-66
2022/10/03 04:33:45;;;;;;;8.67;2.90;;;10.40;99.90;;;-141.84;87.37;18031.88;5051205;28;20213;-67
2022/10/03 04:36:51;;;;;;;6.50;2.53;;;10.40;99.90;;;-141.84;87.83;18013.59;5054107;28;20205;-67
2022/10/03 04:39:34;;;;;;;9.07;3.17;;;10.30;99.90;;;-141.84;88.47;17993.28;5054117;28;20209;-66
2022/10/03 04:42:18;;;;;;;8.57;2.77;;;10.30;99.90;;;-141.84;89.15;18001.41;5053561;28;20245;-66
2022/10/03 04:45:08;;;;;;;9.60;2.97;;;10.20;99.90;;;-141.84;89.42;17985.16;5053503;28;20233;-68
2022/10/03 04:47:48;;;;;;;11.53;3.83;;;10.20;99.90;;;-141.84;90.03;17999.38;5052983;28;20655;-67
2022/10/03 04:50:35;;;;;;;9.33;3.10;;;10.10;99.90;;;-141.84;90.64;17999.38;5053402;28;20229;-66
2022/10/03 04:53:23;;;;;;;10.43;3.50;;;10.10;99.90;;;-141.84;90.89;18042.03;5053122;28;20244;-66
2022/10/03 04:56:14;;;;;;;6.27;2.73;;;10.10;99.90;;;-141.84;90.91;17954.69;5053363;28;20221;-66
2022/10/03 04:58:57;;;;;;;15.50;3.40;;;10.10;99.90;;;-141.84;91.30;17985.16;5052915;28;20748;-68
2022/10/03 05:01:34;;;;;;;6.10;2.87;;;10.10;99.90;;;-141.84;91.40;17987.19;5053102;28;20229;-66
2022/10/03 05:04:23;;;;;;;7.47;2.80;;;10.10;99.90;;;-141.84;91.69;17975.00;5053018;28;20193;-67
2022/10/03 05:07:06;;;;;;;12.07;3.30;;;10.10;99.90;;;-141.84;91.90;17997.34;5052709;28;20197;-66
2022/10/03 05:09:48;;;;;;;8.27;3.10;;;10.10;99.90;;;-141.84;92.15;17991.25;5053310;28;20829;-66
2022/10/03 05:12:31;;;;;;;7.40;3.03;;;10.10;99.90;;;-141.84;91.71;17997.34;5053069;28;20280;-65
2022/10/03 05:15:18;;;;;;;10.20;4.10;;;10.20;99.90;;;-141.84;89.87;17964.84;5052665;28;20256;-68
2022/10/03 05:18:00;;;;;;;10.23;3.63;;;10.30;99.90;;;-141.84;89.58;18001.41;5052470;28;20256;-68
2022/10/03 05:20:48;;;;;;;12.13;3.07;;;10.30;99.90;;;-141.84;89.18;17997.34;5052939;28;20224;-67
2022/10/03 05:23:32;;;;;;;9.57;3.40;;;10.30;99.90;;;-141.84;88.84;18013.59;5052888;28;20225;-68
2022/10/03 05:26:15;;;;;;;13.27;3.47;;;10.30;99.90;;;-141.84;88.53;17968.91;5052848;28;20252;-66
2022/10/03 05:29:15;;;;;;;7.00;3.37;;;10.40;99.90;;;-141.84;88.58;17999.38;5052573;28;20228;-67
2022/10/03 05:32:03;;;;;;;8.97;3.30;;;10.40;99.90;;;-141.84;87.69;18009.53;5052350;28;20233;-67
2022/10/03 05:34:47;;;;;;;7.60;2.80;;;10.50;99.90;;;-141.84;87.91;18040.00;5052349;28;20925;-67
2022/10/03 05:37:55;;;;;;;8.27;3.20;;;10.50;99.90;;;-141.84;87.70;17977.03;5052280;28;20237;-67
2022/10/03 05:40:28;;;;;;;6.37;3.10;;;10.50;99.90;;;-141.84;87.51;18048.13;5052407;28;20240;-67
2022/10/03 05:43:10;;;;;;;6.97;3.20;;;10.60;99.90;;;-141.84;87.72;18035.94;5052203;28;20186;-67
2022/10/03 05:45:54;;;;;;;10.37;3.30;;;10.60;99.90;;;-141.84;88.02;18050.16;5052415;28;20670;-67
2022/10/03 05:48:42;;;;;;;7.43;3.13;;;10.70;99.90;;;-141.84;86.99;18066.41;5052569;28;20202;-68
2022/10/03 05:51:45;;;;;;;8.53;2.90;;;10.80;99.90;;;-141.84;85.89;18064.38;5052510;28;20213;-66
2022/10/03 05:54:53;;;;;;;6.57;2.77;;;10.90;99.90;;;-141.84;85.94;18048.13;5052583;28;20205;-67
2022/10/03 05:58:06;;;;;;;7.87;2.80;;;10.90;99.90;;;-141.84;85.84;18066.41;5052404;28;20202;-66
2022/10/03 06:01:00;;;;;;;8.97;3.20;;;10.90;99.90;;;-141.84;85.40;18042.03;5032351;28;20217;-67
2022/10/03 06:03:56;;;;;;;7.03;2.90;;;10.90;99.90;;;-141.84;85.40;18052.19;5051994;28;20225;-67
2022/10/03 06:06:43;;;;;;;7.90;3.30;;;11.00;99.90;;;-141.84;85.69;18096.88;5026273;28;20219;-68
2022/10/03 06:10:03;;;;;;;10.77;2.87;;;11.00;99.90;;;-141.84;83.57;18090.78;5012344;28;20206;-67
2022/10/03 06:12:44;;;;;;;5.90;2.80;;;11.10;99.90;;;-141.84;83.00;18127.34;5012272;28;20355;-66
2022/10/03 06:15:39;;;;;;;6.57;2.97;;;11.30;99.90;;;-141.84;82.01;18127.34;5012561;28;20210;-66
2022/10/03 06:18:55;;;;;;;9.40;2.73;;;11.30;99.90;;;-141.84;83.14;18172.03;5011811;28;20310;-67
2022/10/03 06:22:00;;;;;;;6.00;2.93;;;11.40;99.90;;;-141.84;83.04;18115.16;5012268;28;20207;-66
2022/10/03 06:25:16;;;;;;;8.03;3.00;;;11.40;99.90;;;-141.84;82.60;18145.63;5031924;28;20210;-66
2022/10/03 06:28:39;;;;;;;6.33;2.97;;;11.50;99.90;;;-141.84;81.47;18147.66;5024742;28;20229;-67
2022/10/03 06:32:05;;;;;;;4.90;2.40;;;11.50;99.90;;;-141.84;80.58;18184.22;5029275;28;20221;-67
2022/10/03 06:35:29;;;;;;;11.57;3.30;;;11.60;99.90;;;-141.84;80.62;18186.25;5050234;28;20229;-67
2022/10/03 06:38:35;;;;;;;6.67;2.73;;;11.70;99.90;;;-141.84;80.01;18224.84;5050144;28;20252;-66
2022/10/03 06:41:53;;;;;;;6.37;2.67;;;11.90;99.90;;;-141.84;79.85;18239.09;5050179;28;20298;-67
2022/10/03 06:45:10;;;;;;;7.40;2.80;;;11.90;99.90;;;-141.84;79.70;18267.53;5035115;28;20625;-67
2022/10/03 06:48:01;;;;;;;10.00;3.17;;;11.90;99.90;;;-141.84;79.47;18281.75;5042986;28;20229;-67
2022/10/03 06:50:55;;;;;;;4.53;2.43;;;12.10;99.90;;;-141.84;78.55;18304.09;5050011;28;20236;-67
2022/10/03 06:54:02;;;;;;;9.00;2.70;;;12.10;99.90;;;-141.84;76.46;18371.13;5049824;28;20233;-66
2022/10/03 06:57:06;;;;;;;6.30;2.60;;;12.20;99.90;;;-141.84;75.74;18434.13;5049311;28;20221;-67
2022/10/03 07:00:14;;;;;;;8.53;2.90;;;12.40;99.90;;;-141.84;75.73;18409.72;5049285;28;20228;-66
2022/10/03 07:03:26;;;;;;;8.53;2.90;;;12.50;99.90;;;-141.84;74.48;18470.69;5049757;28;20221;-67
2022/10/03 07:07:06;;;;;;;9.37;2.60;;;12.50;99.90;;;-141.84;75.83;18425.97;5047703;28;20235;-67
2022/10/03 07:10:16;;;;;;;8.90;2.53;;;12.50;99.90;;;-141.84;76.19;18462.56;4987761;28;20258;-66
2022/10/03 07:13:23;;;;;;;8.07;2.90;;;12.60;99.90;;;-141.84;75.45;18488.97;5029714;28;20234;-66
2022/10/03 07:16:24;;;;;;;10.15;3.17;;;12.60;99.90;;;-141.84;74.84;18478.81;5028814;28;20202;-66
2022/10/03 07:19:53;;;;;;;7.13;2.77;;;12.70;99.90;;;-141.84;74.11;18574.28;5035812;28;20208;-67
2022/10/03 07:22:58;;;;;;;8.13;2.40;;;12.70;99.90;;;-141.84;73.57;18588.53;5046450;28;20229;-67
2022/10/03 07:26:14;;;;;;;6.45;2.58;;;12.90;99.90;;;-141.84;73.15;18612.91;5049191;28;20721;-66
2022/10/03 07:29:23;;;;;;;10.85;3.30;;;13.10;99.90;;;-141.84;73.11;18663.69;5042711;28;20263;-67
2022/10/03 07:32:35;;;;;;;6.53;2.75;;;13.20;99.90;;;-141.84;71.53;18684.00;5040525;28;20229;-67
2022/10/03 07:39:24;;;;;;;7.03;2.92;;;13.50;99.90;;;-141.84;69.52;18842.50;5010205;28;20217;-67
2022/10/03 07:42:27;;;;;;;7.55;2.90;;;13.70;99.90;;;-141.84;68.99;18895.31;5049840;28;20232;-66
2022/10/03 07:45:29;;;;;;;10.85;3.28;;;13.80;99.90;;;-141.84;68.77;18921.75;5043877;28;20221;-68
2022/10/03 07:48:28;;;;;;;6.32;3.03;;;13.80;99.90;;;-141.84;69.15;18889.22;5046891;28;20217;-67
2022/10/03 07:51:36;;;;;;;11.30;3.60;;;13.70;99.90;;;-141.84;69.50;18848.59;5031006;28;20780;-67
2022/10/03 07:54:58;;;;;;;7.78;2.75;;;13.60;99.90;;;-141.84;71.17;18799.81;5028353;28;20571;-66
2022/10/03 07:58:11;;;;;;;8.82;3.60;;;13.50;99.90;;;-141.84;71.67;18744.97;5025402;28;20249;-67
2022/10/03 08:01:08;;;;;;;8.07;3.50;;;13.40;99.90;;;-141.84;72.29;18726.69;5029631;28;20301;-67
2022/10/03 08:04:29;;;;;;;7.93;3.78;;;13.40;99.90;;;-141.84;71.62;18826.25;5030090;28;20684;-67
2022/10/03 08:07:24;;;;;;;9.55;3.63;;;13.30;99.90;;;-141.84;71.28;18751.06;5022078;28;20231;-67
2022/10/03 08:10:20;;;;;;;6.18;2.90;;;13.30;99.90;;;-141.84;72.22;18708.41;5025602;28;20198;-67
2022/10/03 08:13:27;;;;;;;7.95;3.60;;;13.30;99.90;;;-141.84;72.73;18779.50;5033596;28;20256;-68
2022/10/03 08:16:23;;;;;;;10.18;4.30;;;13.30;99.90;;;-141.84;71.63;18773.41;5017368;28;20198;-67
2022/10/03 08:19:20;;;;;;;8.60;3.55;;;13.30;99.90;;;-141.84;71.14;18787.63;5032108;28;20206;-65
2022/10/03 08:22:05;;;;;;;6.80;3.75;;;13.50;99.90;;;-141.84;67.93;18990.81;5051105;28;20197;-67
2022/10/03 08:25:35;;;;;;;7.68;3.58;;;13.70;99.90;;;-141.84;66.82;19057.88;5032038;28;20202;-67
2022/10/03 08:28:31;;;;;;;14.25;3.80;;;13.90;99.90;;;-141.84;67.63;19074.13;4998987;28;20591;-67
2022/10/03 08:31:46;;;;;;;7.03;3.13;;;14.00;99.90;;;-141.84;66.21;19135.09;5033474;28;20194;-67
2022/10/03 08:34:48;;;;;;;6.25;3.13;;;14.20;99.90;;;-141.84;65.27;19281.41;5032847;28;20229;-67
2022/10/03 08:38:06;;;;;;;7.93;3.25;;;14.40;99.90;;;-141.84;62.93;19506.97;5033761;28;20720;-69
2022/10/03 08:41:29;;;;;;;4.53;2.47;;;14.70;99.90;;;-141.84;61.95;19639.06;5029115;28;20288;-67
2022/10/03 08:44:30;;;;;;;5.15;2.58;;;14.90;99.90;;;-141.84;63.29;19541.50;5028099;28;20280;-69
2022/10/03 08:47:32;;;;;;;9.15;3.10;;;14.70;99.90;;;-141.84;64.49;19423.66;5033616;28;20225;-67
2022/10/03 08:50:55;;;;;;;7.32;3.20;;;14.50;99.90;;;-141.84;62.69;19529.31;5033437;28;20230;-68
2022/10/03 08:54:02;;;;;;;9.18;3.33;;;14.50;99.90;;;-141.84;62.58;19602.47;5013849;28;20226;-67
2022/10/03 08:56:59;;;;;;;5.50;2.47;;;14.40;99.90;;;-141.84;63.38;19509.00;5013569;28;20230;-67
2022/10/03 09:00:18;;;;;;;4.75;3.05;;;14.40;99.90;;;-141.84;64.57;19391.13;5013455;28;20241;-67
2022/10/03 09:04:02;;;;;;;8.50;2.88;;;14.20;99.90;;;-141.84;64.01;19439.91;5013245;28;20234;-67
2022/10/03 09:07:19;;;;;;;8.13;2.75;;;14.20;99.90;;;-141.84;63.15;19559.81;5020253;28;20271;-67
2022/10/03 09:10:34;;;;;;;6.28;2.70;;;14.30;99.90;;;-141.84;62.41;19610.59;5050909;28;20648;-67
2022/10/03 09:14:11;;;;;;;7.43;2.88;;;14.50;99.90;;;-141.84;61.64;19832.13;5043239;28;20676;-69
2022/10/03 09:17:30;;;;;;;7.03;2.70;;;14.70;99.90;;;-141.84;61.05;19767.09;5023238;28;20741;-68
2022/10/03 09:20:52;;;;;;;8.68;2.92;;;14.80;99.90;;;-141.84;60.13;19929.69;5021456;28;20223;-68
2022/10/03 09:24:27;;;;;;;9.35;3.28;;;14.90;99.90;;;-141.84;60.46;19919.53;5026936;28;20221;-68
2022/10/03 09:28:02;;;;;;;9.38;2.90;;;15.20;99.90;;;-141.84;59.68;19974.41;5047883;28;20220;-68
2022/10/03 09:30:52;;;;;;;7.90;2.70;;;15.30;99.90;;;-141.84;60.80;19887.00;4920841;28;20224;-70
2022/10/03 09:34:36;;;;;;;5.60;2.30;;;15.20;99.90;;;-141.84;61.39;19897.16;5026061;28;20225;-68
2022/10/03 09:37:47;;;;;;;9.73;2.78;;;15.20;99.90;;;-141.84;61.87;19862.63;5031207;28;20237;-69
2022/10/03 09:41:19;;;;;;;6.18;2.58;;;15.10;99.90;;;-141.84;60.28;19887.00;5030517;28;20717;-69
2022/10/03 09:44:30;;;;;;;4.93;2.40;;;15.00;99.90;;;-141.84;60.04;19947.97;5019427;28;20226;-70
2022/10/03 09:47:49;;;;;;;9.40;2.63;;;15.10;99.90;;;-141.84;58.77;20057.72;5031862;28;20221;-71
2022/10/03 09:51:06;;;;;;;6.55;2.47;;;15.00;99.90;;;-141.84;59.76;19972.38;5032072;28;20226;-70
2022/10/03 09:54:17;;;;;;;7.38;2.40;;;14.90;99.90;;;-141.84;58.83;20027.25;5030578;28;20606;-70
2022/10/03 09:57:43;;;;;;;8.48;2.83;;;15.10;99.90;;;-141.84;59.22;19990.66;5025216;28;20257;-69
2022/10/03 10:00:24;;;;;;;8.60;3.00;;;15.10;99.90;;;-141.84;60.06;19972.38;5032069;28;20469;-69
2022/10/03 10:03:52;;;;;;;6.28;2.58;;;15.00;99.90;;;-141.84;61.10;19911.41;5031705;28;20717;-69
2022/10/03 10:06:40;;;;;;;4.88;2.38;;;15.00;99.90;;;-141.84;59.62;20008.94;5008808;28;20217;-70
2022/10/03 10:10:05;;;;;;;7.72;2.45;;;15.10;99.90;;;-141.84;58.78;20082.13;5044330;28;20217;-69
2022/10/03 10:13:13;;;;;;;5.75;2.50;;;15.20;99.90;;;-141.84;57.64;20171.56;5038604;28;21283;-68
2022/10/03 10:16:32;;;;;;;6.32;2.63;;;15.40;99.90;;;-141.84;57.13;20210.16;5055464;28;20302;-69
2022/10/03 10:19:26;;;;;;;6.78;2.58;;;15.70;99.90;;;-141.84;55.98;20321.97;5038063;28;20293;-69
2022/10/03 10:22:51;;;;;;;6.03;2.22;;;15.80;99.90;;;-141.84;56.30;20297.56;5032995;28;20202;-70
2022/10/03 10:26:01;;;;;;;8.85;2.08;;;15.90;99.90;;;-141.84;54.84;20350.41;5047446;28;20241;-71
2022/10/03 10:29:06;;;;;;;5.78;2.08;;;15.90;99.90;;;-141.84;54.21;20411.41;5037294;28;20225;-71
2022/10/03 10:32:24;;;;;;;4.50;1.65;;;16.00;99.90;;;-141.84;54.25;20411.41;5049438;28;20607;-71
2022/10/03 10:35:34;;;;;;;4.45;2.45;;;16.10;99.90;;;-141.84;54.72;20401.22;5038132;28;20228;-71
2022/10/03 10:38:32;;;;;;;7.57;2.78;;;16.00;99.90;;;-141.84;54.98;20427.66;5050843;28;20221;-73
2022/10/03 10:42:15;;;;;;;4.72;1.90;;;16.10;99.90;;;-141.84;54.77;20435.78;5042374;28;20248;-72
2022/10/03 10:45:39;;;;;;;9.30;2.63;;;16.10;99.90;;;-141.84;55.45;20439.84;5022969;28;20554;-72
2022/10/03 10:49:20;;;;;;;5.10;2.30;;;16.20;99.90;;;-141.84;54.70;20452.06;5046747;28;20911;-73
2022/10/03 10:52:46;;;;;;;6.07;2.25;;;16.20;99.90;;;-141.84;53.72;20533.34;5024807;28;20223;-72
2022/10/03 10:56:05;;;;;;;6.97;2.30;;;16.40;99.90;;;-141.84;52.71;20592.31;5019515;28;20655;-72
2022/10/03 10:59:46;;;;;;;9.18;2.45;;;16.60;99.90;;;-141.84;53.06;20594.34;5030762;28;20238;-73
2022/10/03 11:03:33;;;;;;;5.47;1.65;;;16.80;99.90;;;-141.84;51.61;20704.13;5029073;28;20240;-72
2022/10/03 11:06:52;;;;;;;6.40;2.05;;;16.80;99.90;;;-141.84;51.27;20679.72;5031028;28;20229;-72
2022/10/03 11:09:49;;;;;;;6.22;1.85;;;17.00;99.90;;;-141.84;51.19;20704.13;5014713;28;20252;-72
2022/10/03 11:13:12;;;;;;;6.70;2.30;;;17.00;99.90;;;-141.84;51.66;20669.56;5050744;28;20218;-72
2022/10/03 11:16:52;;;;;;;6.38;1.60;;;17.00;99.90;;;-141.84;51.68;20649.22;5031515;28;20232;-72
2022/10/03 11:20:20;;;;;;;5.60;1.52;;;16.80;99.90;;;-141.84;52.14;20632.97;5026200;28;20244;-72
2022/10/03 11:23:39;;;;;;;3.53;2.28;;;16.50;99.90;;;-141.84;52.61;20574.00;5051068;28;20213;-72
2022/10/03 11:27:12;;;;;;;6.30;1.85;;;16.40;99.90;;;-141.84;53.70;20574.00;5039756;28;20276;-72
2022/10/03 11:30:43;;;;;;;7.93;2.20;;;16.30;99.90;;;-141.84;53.08;20567.91;5023260;28;20237;-72
2022/10/03 11:34:19;;;;;;;4.10;2.10;;;16.20;99.90;;;-141.84;53.04;20563.84;5029575;28;20217;-73
2022/10/03 11:37:08;;;;;;;8.07;2.13;;;16.40;99.90;;;-141.84;53.01;20651.25;5053286;28;20221;-72
2022/10/03 11:39:50;;;;;;;6.80;2.25;;;16.60;99.90;;;-141.84;52.72;20649.22;5051004;28;20549;-72
2022/10/03 11:42:49;;;;;;;6.05;1.98;;;16.70;99.90;;;-141.84;52.13;20681.75;5049247;28;20251;-72
2022/10/03 11:45:31;;;;;;;5.65;1.80;;;16.90;99.90;;;-141.84;51.19;20667.53;5055228;28;20211;-71
2022/10/03 11:48:37;;;;;;;5.78;2.00;;;16.80;99.90;;;-141.84;51.93;20651.25;5053072;28;20594;-71
2022/10/03 11:51:11;;;;;;;5.65;2.10;;;16.70;99.90;;;-141.84;53.16;20675.66;5034277;28;20229;-71
2022/10/03 11:53:48;;;;;;;8.20;2.17;;;16.60;99.90;;;-141.84;52.56;20618.72;5034093;28;20222;-71
2022/10/03 11:56:37;;;;;;;4.72;2.00;;;16.50;99.90;;;-141.84;53.68;20543.53;5028249;28;20230;-73
2022/10/03 11:59:36;;;;;;;5.25;1.80;;;16.40;99.90;;;-141.84;53.32;20604.50;5033708;28;20217;-73
2022/10/03 12:02:16;;;;;;;5.72;1.80;;;16.30;99.90;;;-141.84;54.10;20592.31;5030447;28;20222;-71
2022/10/03 12:04:58;;;;;;;6.80;1.85;;;16.30;99.90;;;-141.84;54.66;20565.88;5030605;28;20228;-72
2022/10/03 12:10:46;;;;;;;6.43;1.73;;;16.40;99.90;;;-141.84;51.53;20726.47;5033844;28;20225;-72
2022/10/03 12:13:22;;;;;;;7.05;1.80;;;16.70;99.90;;;-141.84;51.99;20700.03;5034155;28;20233;-72
2022/10/03 12:15:57;;;;;;;5.50;1.95;;;16.90;99.90;;;-141.84;50.95;20736.63;5033845;28;20216;-71
2022/10/03 12:18:48;;;;;;;5.75;1.35;;;17.00;99.90;;;-141.84;51.21;20726.47;5034733;28;20567;-71
2022/10/03 12:21:29;;;;;;;4.25;1.60;;;17.00;99.90;;;-141.84;50.71;20811.84;5034023;28;20280;-71
2022/10/03 12:24:25;;;;;;;7.30;2.58;;;17.10;99.90;;;-141.84;51.01;20773.22;5051141;28;20225;-71
2022/10/03 12:27:04;;;;;;;5.20;1.60;;;17.20;99.90;;;-141.84;51.07;20789.50;5035381;28;20261;-71
2022/10/03 12:29:44;;;;;;;5.55;1.90;;;17.20;99.90;;;-141.84;50.55;20775.25;5048314;28;20225;-71
2022/10/03 12:32:31;;;;;;;8.07;1.83;;;17.20;99.90;;;-141.84;50.24;20809.81;5051115;28;20232;-73
2022/10/03 12:35:24;;;;;;;5.90;1.60;;;17.40;99.90;;;-141.84;50.49;20822.03;5037661;28;20236;-70
2022/10/03 12:38:23;;;;;;;5.90;1.65;;;17.40;99.90;;;-141.84;50.85;20724.44;5031201;28;20233;-72
2022/10/03 12:41:06;;;;;;;5.90;1.60;;;17.20;99.90;;;-141.84;51.81;20740.69;5033752;28;20657;-70